createdAt,value
2022-10-13T00:08:26.243Z,262
2022-10-13T00:28:33.405Z,261
2022-10-13T00:48:26.308Z,259
2022-10-13T01:08:33.352Z,259
2022-10-13T01:28:26.431Z,259
2022-10-13T01:48:26.503Z,260
2022-10-13T02:08:26.458Z,265
2022-10-13T02:28:26.530Z,263
2022-10-13T02:48:26.528Z,263
2022-10-13T03:28:26.625Z,263
2022-10-13T03:48:26.610Z,264
2022-10-13T04:08:26.646Z,257
2022-10-13T04:28:26.573Z,257
2022-10-13T04:48:26.709Z,262
2022-10-13T05:08:26.775Z,261
2022-10-13T05:28:26.917Z,266
2022-10-13T05:48:26.808Z,263
2022-10-13T06:08:26.849Z,262
2022-10-13T06:28:26.908Z,263
2022-10-13T06:48:26.925Z,263
2022-10-13T07:08:26.953Z,263
2022-10-13T07:28:27.041Z,270
2022-10-13T07:48:27.025Z,268
2022-10-13T08:08:27.044Z,273
2022-10-13T08:28:27.100Z,276
2022-10-13T08:48:27.098Z,269
2022-10-13T09:08:27.024Z,270
2022-10-13T09:28:27.284Z,270
2022-10-13T09:48:27.171Z,266
2022-10-13T10:28:27.250Z,271
2022-10-13T10:48:27.151Z,271
2022-10-13T11:08:27.257Z,273
2022-10-13T11:28:27.271Z,269
2022-10-13T11:48:27.231Z,266
2022-10-13T12:08:27.246Z,260
2022-10-13T12:28:27.355Z,254
2022-10-13T12:48:27.199Z,250
2022-10-13T13:08:27.330Z,248
2022-10-13T13:28:27.377Z,248
2022-10-13T13:48:27.276Z,250
2022-10-13T14:08:27.432Z,249
2022-10-13T14:28:27.563Z,249
2022-10-13T14:48:27.571Z,255
2022-10-13T15:08:27.580Z,261
2022-10-13T15:28:27.676Z,261
2022-10-13T16:08:27.664Z,259
2022-10-13T16:48:27.722Z,264
2022-10-13T17:08:27.816Z,267
2022-10-13T17:28:27.778Z,265
2022-10-13T18:08:27.802Z,261
2022-10-13T18:28:27.678Z,262
2022-10-13T18:48:27.852Z,264
2022-10-13T19:08:27.908Z,260
2022-10-13T19:28:27.855Z,266
2022-10-13T19:48:28.025Z,266
2022-10-13T20:08:27.980Z,267
2022-10-13T20:28:27.859Z,267
2022-10-13T20:48:51.413Z,264
2022-10-13T21:08:42.055Z,263
2022-10-13T21:28:35.092Z,267
2022-10-13T22:08:37.823Z,267
2022-10-13T22:28:29.018Z,270
2022-10-13T22:48:28.186Z,270
2022-10-13T23:08:28.006Z,268
2022-10-13T23:28:28.321Z,270
2022-10-13T23:48:35.271Z,271
